createdAt,value
2023-01-25T00:04:06.874Z,52.75
2023-01-25T00:10:12.563Z,53.83
2023-01-25T00:16:16.151Z,54.50
2023-01-25T00:22:19.727Z,53.45
2023-01-25T00:28:24.643Z,54.35
2023-01-25T00:34:40.307Z,54.22
2023-01-25T00:40:43.716Z,59.88
2023-01-25T00:46:48.510Z,59.22
2023-01-25T00:52:51.946Z,59.38
2023-01-25T00:58:55.501Z,61.05
2023-01-25T01:05:00.384Z,65.53
2023-01-25T01:11:04.646Z,58.90
2023-01-25T01:17:08.169Z,60.40
2023-01-25T01:23:13.002Z,70.05
2023-01-25T01:29:16.402Z,62.85
2023-01-25T01:35:19.814Z,65.22
2023-01-25T01:41:24.660Z,64.30
2023-01-25T01:47:30.603Z,66.55
2023-01-25T01:53:34.907Z,63.95
2023-01-25T01:59:42.103Z,65.97
2023-01-25T02:05:49.156Z,71.75
2023-01-25T02:11:52.996Z,71.70
2023-01-25T02:17:57.744Z,70.97
2023-01-25T02:24:04.108Z,69.93
2023-01-25T02:30:10.008Z,67.05
2023-01-25T02:36:24.177Z,62.17
2023-01-25T02:42:27.551Z,61.67
2023-01-25T02:48:32.336Z,60.97
2023-01-25T02:54:35.729Z,69.88
2023-01-25T03:00:39.189Z,66.43
2023-01-25T03:06:44.578Z,63.03
2023-01-25T03:12:48.066Z,63.65
2023-01-25T03:18:54.487Z,71.13
2023-01-25T03:24:59.440Z,69.03
2023-01-25T03:31:02.934Z,80.47
2023-01-25T03:37:06.341Z,73.55
2023-01-25T03:43:11.379Z,74.00
2023-01-25T03:49:14.828Z,76.67
2023-01-25T03:55:18.446Z,69.33
2023-01-25T04:01:23.278Z,70.65
2023-01-25T04:07:26.749Z,71.75
2023-01-25T04:13:30.188Z,65.70
2023-01-25T04:19:35.315Z,70.25
2023-01-25T04:25:38.910Z,66.78
2023-01-25T04:31:42.458Z,66.80
2023-01-25T04:37:54.271Z,64.57
2023-01-25T04:43:57.634Z,65.68
2023-01-25T04:50:01.117Z,66.93
2023-01-25T04:56:06.187Z,72.20
2023-01-25T05:02:09.846Z,68.13
2023-01-25T05:08:13.271Z,67.73
2023-01-25T05:14:18.057Z,66.45
2023-01-25T05:20:21.469Z,66.70
2023-01-25T05:26:42.505Z,70.60
2023-01-25T05:32:47.254Z,68.23
2023-01-25T05:38:50.625Z,69.55
2023-01-25T05:44:55.329Z,70.65
2023-01-25T05:51:00.688Z,70.15
2023-01-25T05:57:04.105Z,73.83
2023-01-25T06:03:07.647Z,69.20
2023-01-25T06:09:13.747Z,73.50
2023-01-25T06:15:17.269Z,74.70
2023-01-25T06:21:20.861Z,69.65
2023-01-25T06:27:25.669Z,70.07
2023-01-25T06:33:29.039Z,74.85
2023-01-25T06:39:32.425Z,68.80
2023-01-25T06:45:37.341Z,72.22
2023-01-25T06:51:40.789Z,72.13
2023-01-25T06:57:44.276Z,82.32
2023-01-25T07:03:51.340Z,78.85
2023-01-25T07:09:54.757Z,73.73
2023-01-25T07:15:58.599Z,68.75
2023-01-25T07:22:03.778Z,68.47
2023-01-25T07:28:07.165Z,74.00
2023-01-25T07:34:11.122Z,70.68
2023-01-25T07:40:16.535Z,70.13
2023-01-25T07:46:20.112Z,74.10
2023-01-25T07:52:23.470Z,77.95
2023-01-25T07:58:28.457Z,73.55
2023-01-25T08:04:31.855Z,81.50
2023-01-25T08:10:35.431Z,68.63
2023-01-25T08:16:40.365Z,76.33
2023-01-25T08:22:44.823Z,74.38
2023-01-25T08:28:48.307Z,71.73
2023-01-25T08:34:53.060Z,82.27
2023-01-25T08:40:56.455Z,76.53
2023-01-25T08:46:59.895Z,73.10
2023-01-25T08:53:04.965Z,72.75
2023-01-25T08:59:08.519Z,84.03
2023-01-25T09:05:12.012Z,77.38
2023-01-25T09:11:17.598Z,82.73
2023-01-25T09:17:20.979Z,87.47
2023-01-25T09:23:24.793Z,82.57
2023-01-25T09:29:29.613Z,73.45
2023-01-25T09:35:34.209Z,78.70
2023-01-25T09:42:06.467Z,82.10
2023-01-25T09:48:21.365Z,81.80
2023-01-25T09:54:25.155Z,71.00
2023-01-25T10:00:31.977Z,70.18
2023-01-25T10:06:40.797Z,60.50
2023-01-25T10:12:47.305Z,64.65
2023-01-25T10:18:56.283Z,72.37
2023-01-25T10:25:12.196Z,65.47
2023-01-25T10:31:19.574Z,71.22
2023-01-25T10:37:23.957Z,69.72
2023-01-25T10:43:28.900Z,69.60
2023-01-25T10:49:38.773Z,71.63
2023-01-25T10:55:56.903Z,63.63
2023-01-25T11:02:21.779Z,64.37
2023-01-25T11:08:26.108Z,73.10
2023-01-25T11:14:30.605Z,90.18
2023-01-25T11:20:35.475Z,66.90
2023-01-25T11:26:39.858Z,71.68
2023-01-25T11:32:43.428Z,60.05
2023-01-25T11:39:00.002Z,59.58
2023-01-25T11:45:18.657Z,65.15
2023-01-25T11:51:25.104Z,62.05
2023-01-25T11:57:39.829Z,58.53
2023-01-25T12:03:49.787Z,72.60
2023-01-25T12:09:59.681Z,80.32
2023-01-25T12:16:11.276Z,67.28
2023-01-25T12:22:35.786Z,68.63
2023-01-25T12:28:42.008Z,65.95
2023-01-25T12:34:48.851Z,70.50
2023-01-25T12:40:54.955Z,62.95
2023-01-25T12:47:01.622Z,51.55
2023-01-25T12:53:09.104Z,59.60
2023-01-25T12:59:17.703Z,60.90
2023-01-25T13:05:26.171Z,61.67
2023-01-25T13:11:33.962Z,63.72
2023-01-25T13:17:40.659Z,56.08
2023-01-25T13:23:47.340Z,53.05
2023-01-25T13:29:59.005Z,54.67
2023-01-25T13:36:34.930Z,53.80
2023-01-25T13:42:41.135Z,53.83
2023-01-25T13:48:49.397Z,61.47
2023-01-25T13:54:56.419Z,71.20
2023-01-25T14:01:04.173Z,53.90
2023-01-25T14:07:10.226Z,56.35
2023-01-25T14:13:15.472Z,57.28
2023-01-25T14:19:26.976Z,58.92
2023-01-25T14:25:30.769Z,54.38
2023-01-25T14:31:35.280Z,54.15
2023-01-25T14:37:43.720Z,49.95
2023-01-25T14:43:48.515Z,54.40
2023-01-25T14:49:51.952Z,53.17
2023-01-25T14:55:56.883Z,61.20
2023-01-25T15:02:06.026Z,76.38
2023-01-25T15:08:17.075Z,57.28
2023-01-25T15:14:22.772Z,53.67
2023-01-25T15:20:33.870Z,49.92
2023-01-25T15:26:37.800Z,53.55
2023-01-25T15:32:42.602Z,54.38
2023-01-25T15:38:46.249Z,62.30
2023-01-25T15:44:49.718Z,55.10
2023-01-25T15:50:55.625Z,52.75
2023-01-25T15:57:00.235Z,60.72
2023-01-25T16:03:03.749Z,55.45
2023-01-25T16:09:14.983Z,58.45
2023-01-25T16:15:18.460Z,57.78
2023-01-25T16:21:22.038Z,67.90
2023-01-25T16:27:35.488Z,65.20
2023-01-25T16:33:38.908Z,58.05
2023-01-25T16:39:43.557Z,65.70
2023-01-25T16:45:48.454Z,62.65
2023-01-25T16:51:51.919Z,66.53
2023-01-25T16:57:55.346Z,62.70
2023-01-25T17:04:00.191Z,59.85
2023-01-25T17:10:04.447Z,56.30
2023-01-25T17:16:08.116Z,59.08
2023-01-25T17:22:13.003Z,59.00
2023-01-25T17:28:16.432Z,65.43
2023-01-25T17:34:21.859Z,70.70
2023-01-25T17:40:26.728Z,63.38
2023-01-25T17:46:33.132Z,62.88
2023-01-25T17:52:36.802Z,72.80
2023-01-25T17:58:42.404Z,66.30
2023-01-25T18:04:45.849Z,64.82
2023-01-25T18:10:49.239Z,65.60
2023-01-25T18:16:53.996Z,76.93
2023-01-25T18:22:57.432Z,65.18
2023-01-25T18:29:03.958Z,65.85
2023-01-25T18:35:09.613Z,82.15
2023-01-25T18:41:13.590Z,65.25
2023-01-25T18:47:18.876Z,74.75
2023-01-25T18:53:24.157Z,72.97
2023-01-25T18:59:27.734Z,73.35
2023-01-25T19:05:31.229Z,73.35
2023-01-25T19:11:36.053Z,73.10
2023-01-25T19:17:39.888Z,68.53
2023-01-25T19:23:43.428Z,80.75
2023-01-25T19:29:49.709Z,88.88
2023-01-25T19:36:05.525Z,71.78
2023-01-25T19:42:09.495Z,66.20
2023-01-25T19:48:14.363Z,73.80
2023-01-25T19:54:20.215Z,74.45
2023-01-25T20:00:24.762Z,69.97
2023-01-25T20:06:29.638Z,67.97
2023-01-25T20:12:33.077Z,69.28
2023-01-25T20:18:36.709Z,64.43
2023-01-25T20:24:42.401Z,79.68
2023-01-25T20:30:45.822Z,67.05
2023-01-25T20:36:49.915Z,71.55
2023-01-25T20:42:54.871Z,70.00
2023-01-25T20:48:59.372Z,66.45
2023-01-25T20:55:02.773Z,65.93
2023-01-25T21:01:14.365Z,65.70
2023-01-25T21:07:17.737Z,73.18
2023-01-25T21:13:21.389Z,63.83
2023-01-25T21:19:26.736Z,70.53
2023-01-25T21:25:30.298Z,76.43
2023-01-25T21:31:34.737Z,69.88
2023-01-25T21:37:40.104Z,77.28
2023-01-25T21:44:01.944Z,68.32
2023-01-25T21:50:22.819Z,77.30
2023-01-25T21:56:27.713Z,74.22
2023-01-25T22:02:31.219Z,82.25
2023-01-25T22:08:34.635Z,73.65
2023-01-25T22:14:39.661Z,78.60
2023-01-25T22:20:43.174Z,76.22
2023-01-25T22:26:49.246Z,79.75
2023-01-25T22:32:54.044Z,67.80
2023-01-25T22:38:58.523Z,83.15
2023-01-25T22:45:02.506Z,72.53
2023-01-25T22:51:08.182Z,73.35
2023-01-25T22:57:11.562Z,75.50
2023-01-25T23:03:15.287Z,72.05
2023-01-25T23:09:20.120Z,64.32
2023-01-25T23:15:23.915Z,65.68
2023-01-25T23:21:28.324Z,62.78
2023-01-25T23:27:33.349Z,64.03
2023-01-25T23:33:36.841Z,63.65
2023-01-25T23:39:40.258Z,56.67
2023-01-25T23:45:45.937Z,59.25
2023-01-25T23:51:49.597Z,55.40
2023-01-25T23:57:54.504Z,51.80
